Time;durP1;ratioP1;P1;durP2;ratioP2;P2;SDS_P1;SDS_P2;PMS_P1;PMS_P2;Temp;Humidity;BMP_temperature;BMP_pressure;BME280_temperature;BME280_humidity;BME280_pressure;Samples;Min_cycle;Max_cycle;Signal;HPM_P1;HPM_P2
2022/07/03 00:00:54;;;;;;;4.80;2.65;;;;;;;;;;4836203;29;20040;-66
2022/07/03 00:03:20;;;;;;;3.00;2.38;;;;;;;;;;4835484;29;20038;-66
2022/07/03 00:05:45;;;;;;;4.05;2.13;;;;;;;;;;4838431;29;21512;-65
2022/07/03 00:08:11;;;;;;;5.15;2.60;;;;;;;;;;4837469;29;20069;-65
2022/07/03 00:10:36;;;;;;;3.60;2.20;;;;;;;;;;4836272;29;20415;-67
2022/07/03 00:13:01;;;;;;;2.60;2.10;;;;;;;;;;4834162;29;20673;-70
2022/07/03 00:15:27;;;;;;;3.88;2.38;;;;;;;;;;4835792;29;20048;-68
2022/07/03 00:17:52;;;;;;;4.60;2.45;;;;;;;;;;4836172;29;20732;-68
2022/07/03 00:20:19;;;;;;;2.40;2.08;;;;;;;;;;4821848;29;20052;-67
2022/07/03 00:22:45;;;;;;;4.65;2.15;;;;;;;;;;4831070;29;20044;-65
2022/07/03 00:25:13;;;;;;;3.65;2.17;;;;;;;;;;4833795;29;20053;-70
2022/07/03 00:27:39;;;;;;;4.25;2.10;;;;;;;;;;4837281;29;20034;-69
2022/07/03 00:30:07;;;;;;;4.28;2.20;;;;;;;;;;4837533;29;20116;-65
2022/07/03 00:32:33;;;;;;;4.70;2.10;;;;;;;;;;4831993;29;20456;-65
2022/07/03 00:34:59;;;;;;;3.10;1.95;;;;;;;;;;4819460;29;20034;-67
2022/07/03 00:37:25;;;;;;;5.60;2.40;;;;;;;;;;4840151;29;21108;-68
2022/07/03 00:39:50;;;;;;;3.88;2.17;;;;;;;;;;4839802;29;20082;-67
2022/07/03 00:42:17;;;;;;;3.50;2.20;;;;;;;;;;4841702;29;20042;-69
2022/07/03 00:44:45;;;;;;;3.63;1.83;;;;;;;;;;4834543;29;20046;-66
2022/07/03 00:47:15;;;;;;;3.20;2.10;;;;;;;;;;4839139;29;20044;-65
2022/07/03 00:49:45;;;;;;;2.60;2.00;;;;;;;;;;4837507;29;20034;-68
2022/07/03 00:52:12;;;;;;;3.55;2.20;;;;;;;;;;4838538;29;20083;-69
2022/07/03 00:54:41;;;;;;;4.05;2.08;;;;;;;;;;4839452;29;20045;-66
2022/07/03 00:57:14;;;;;;;3.97;2.10;;;;;;;;;;4837405;29;20045;-69
2022/07/03 00:59:39;;;;;;;3.63;2.00;;;;;;;;;;4836602;29;20041;-65
2022/07/03 01:02:05;;;;;;;2.78;1.95;;;;;;;;;;4836674;29;20312;-66
2022/07/03 01:04:50;;;;;;;3.30;2.30;;;;;;;;;;4839577;29;20030;-66
2022/07/03 01:07:44;;;;;;;2.55;1.85;;;;;;;;;;4837142;29;20044;-66
2022/07/03 01:10:26;;;;;;;4.95;2.13;;;;;;;;;;4834263;29;20026;-63
2022/07/03 01:13:04;;;;;;;5.95;2.20;;;;;;;;;;4830700;29;20517;-64
2022/07/03 01:15:50;;;;;;;3.95;2.20;;;;;;;;;;4835143;29;20057;-64
2022/07/03 01:18:40;;;;;;;3.15;2.00;;;;;;;;;;4834573;29;20037;-66
2022/07/03 01:21:24;;;;;;;2.53;1.80;;;;;;;;;;4833151;29;20034;-66
2022/07/03 01:24:22;;;;;;;4.10;1.92;;;;;;;;;;4829403;29;20094;-66
2022/07/03 01:26:52;;;;;;;3.83;2.00;;;;;;;;;;4832476;29;20046;-65
2022/07/03 01:29:25;;;;;;;2.08;1.60;;;;;;;;;;4836619;29;20038;-64
2022/07/03 01:31:54;;;;;;;2.42;1.75;;;;;;;;;;4839734;29;20379;-65
2022/07/03 01:34:21;;;;;;;1.77;1.52;;;;;;;;;;4834704;29;20049;-66
2022/07/03 01:36:49;;;;;;;4.18;2.03;;;;;;;;;;4831229;29;20041;-67
2022/07/03 01:39:17;;;;;;;3.80;1.73;;;;;;;;;;4834335;29;20045;-65
2022/07/03 01:41:45;;;;;;;2.88;1.70;;;;;;;;;;4829757;29;20053;-65
2022/07/03 01:44:13;;;;;;;4.47;1.75;;;;;;;;;;4829134;29;20042;-65
2022/07/03 01:46:41;;;;;;;2.45;1.90;;;;;;;;;;4827555;29;20050;-64
2022/07/03 01:49:10;;;;;;;3.22;1.60;;;;;;;;;;4832495;29;20033;-65
2022/07/03 01:51:38;;;;;;;4.40;1.90;;;;;;;;;;4828205;29;20695;-65
2022/07/03 01:54:05;;;;;;;3.03;1.70;;;;;;;;;;4831278;29;20050;-64
2022/07/03 01:56:34;;;;;;;2.75;1.80;;;;;;;;;;4830025;29;20034;-64
2022/07/03 01:58:59;;;;;;;2.67;1.80;;;;;;;;;;4830798;29;20410;-65
2022/07/03 02:01:43;;;;;;;2.47;1.67;;;;;;;;;;4814942;29;20045;-64
2022/07/03 02:04:30;;;;;;;5.07;1.90;;;;;;;;;;4831833;29;20033;-64
2022/07/03 02:07:04;;;;;;;4.63;1.63;;;;;;;;;;4815667;29;20053;-65
2022/07/03 02:10:01;;;;;;;4.40;1.67;;;;;;;;;;4833055;29;20038;-65
2022/07/03 02:12:30;;;;;;;3.38;1.73;;;;;;;;;;4830626;29;20041;-65
2022/07/03 02:15:07;;;;;;;1.90;1.50;;;;;;;;;;4832469;29;20095;-66
2022/07/03 02:17:44;;;;;;;2.67;1.63;;;;;;;;;;4829434;29;20045;-65
2022/07/03 02:20:11;;;;;;;1.75;1.50;;;;;;;;;;4832477;29;20030;-65
2022/07/03 02:22:57;;;;;;;2.72;1.83;;;;;;;;;;4830787;29;20128;-65
2022/07/03 02:25:24;;;;;;;2.63;2.05;;;;;;;;;;4836840;29;20053;-64
2022/07/03 02:28:24;;;;;;;2.67;1.85;;;;;;;;;;4837954;29;20147;-65
2022/07/03 02:30:54;;;;;;;1.98;1.85;;;;;;;;;;4819270;29;20071;-65
2022/07/03 02:33:24;;;;;;;2.03;1.80;;;;;;;;;;4841711;29;20118;-65
2022/07/03 02:35:54;;;;;;;4.38;2.20;;;;;;;;;;4843525;29;20043;-64
2022/07/03 02:38:21;;;;;;;2.95;2.17;;;;;;;;;;4843130;29;20042;-64
2022/07/03 02:41:09;;;;;;;4.20;2.13;;;;;;;;;;4842275;29;20408;-64
2022/07/03 02:43:51;;;;;;;2.58;1.75;;;;;;;;;;4845341;29;20456;-64
2022/07/03 02:49:38;;;;;;;2.33;1.80;;;;;;;;;;4844111;29;20102;-64
2022/07/03 02:52:13;;;;;;;2.88;1.80;;;;;;;;;;4841654;29;20429;-64
2022/07/03 02:54:46;;;;;;;3.97;2.00;;;;;;;;;;4846372;29;20517;-63
2022/07/03 02:57:17;;;;;;;3.95;1.70;;;;;;;;;;4846729;29;20129;-64
2022/07/03 02:59:48;;;;;;;3.00;1.63;;;;;;;;;;4839009;29;20034;-64
2022/07/03 03:02:22;;;;;;;1.85;1.40;;;;;;;;;;4839727;29;20519;-64
2022/07/03 03:05:01;;;;;;;2.10;1.58;;;;;;;;;;4839210;29;20098;-63
2022/07/03 03:07:34;;;;;;;4.50;1.40;;;;;;;;;;4841004;29;20056;-65
2022/07/03 03:09:59;;;;;;;1.60;1.40;;;;;;;;;;4834439;29;20037;-64
2022/07/03 03:12:35;;;;;;;1.77;1.40;;;;;;;;;;4835907;29;20046;-65
2022/07/03 03:15:03;;;;;;;2.10;1.48;;;;;;;;;;4834110;29;20030;-65
2022/07/03 03:17:52;;;;;;;3.70;1.40;;;;;;;;;;4837704;29;20103;-64
2022/07/03 03:20:25;;;;;;;2.25;1.30;;;;;;;;;;4837072;29;20034;-65
2022/07/03 03:23:09;;;;;;;2.95;1.50;;;;;;;;;;4835489;29;20046;-66
2022/07/03 03:25:36;;;;;;;3.38;1.40;;;;;;;;;;4837996;29;20034;-65
2022/07/03 03:28:01;;;;;;;2.03;1.42;;;;;;;;;;4837091;29;20372;-67
2022/07/03 03:30:27;;;;;;;2.22;1.42;;;;;;;;;;4833396;29;20026;-65
2022/07/03 03:32:52;;;;;;;2.03;1.52;;;;;;;;;;4834714;29;21072;-65
2022/07/03 03:35:18;;;;;;;1.88;1.67;;;;;;;;;;4838258;29;20050;-65
2022/07/03 03:37:45;;;;;;;3.47;1.90;;;;;;;;;;4839370;29;20065;-64
2022/07/03 03:40:11;;;;;;;2.13;1.70;;;;;;;;;;4835293;29;20029;-64
2022/07/03 03:42:37;;;;;;;2.38;1.65;;;;;;;;;;4837858;29;20486;-64
2022/07/03 03:45:03;;;;;;;2.13;1.50;;;;;;;;;;4835628;29;20034;-64
2022/07/03 03:47:29;;;;;;;2.33;1.63;;;;;;;;;;4838287;29;20059;-65
2022/07/03 03:49:54;;;;;;;3.97;1.98;;;;;;;;;;4834600;29;20167;-64
2022/07/03 03:52:20;;;;;;;2.10;1.70;;;;;;;;;;4835606;29;20133;-64
2022/07/03 03:54:45;;;;;;;4.50;1.83;;;;;;;;;;4838752;29;20038;-64
2022/07/03 03:57:16;;;;;;;3.45;1.55;;;;;;;;;;4834731;29;21580;-64
2022/07/03 03:59:41;;;;;;;2.85;1.50;;;;;;;;;;4822333;29;20074;-64
2022/07/03 04:02:07;;;;;;;6.28;1.80;;;;;;;;;;4835295;29;20323;-64
2022/07/03 04:04:32;;;;;;;6.30;1.50;;;;;;;;;;4815293;29;20045;-64
2022/07/03 04:06:57;;;;;;;2.08;1.48;;;;;;;;;;4833790;29;20037;-65
2022/07/03 04:09:23;;;;;;;1.95;1.35;;;;;;;;;;4837455;29;20507;-63
2022/07/03 04:11:48;;;;;;;1.73;1.20;;;;;;;;;;4832413;29;20057;-67
2022/07/03 04:14:13;;;;;;;4.72;1.77;;;;;;;;;;4834934;29;20094;-65
2022/07/03 04:16:39;;;;;;;3.92;1.40;;;;;;;;;;4834305;29;20114;-64
2022/07/03 04:19:04;;;;;;;1.95;1.45;;;;;;;;;;4833207;29;20037;-64
2022/07/03 04:21:30;;;;;;;3.92;1.65;;;;;;;;;;4834296;29;20570;-65
2022/07/03 04:23:55;;;;;;;1.98;1.35;;;;;;;;;;4831088;29;20128;-64
2022/07/03 04:26:20;;;;;;;3.65;1.63;;;;;;;;;;4833686;29;20079;-64
2022/07/03 04:28:46;;;;;;;2.33;1.35;;;;;;;;;;4835030;29;20045;-64
2022/07/03 04:31:11;;;;;;;2.75;1.38;;;;;;;;;;4836422;29;20387;-64
2022/07/03 04:33:36;;;;;;;2.90;1.50;;;;;;;;;;4836744;29;20160;-64
2022/07/03 04:36:03;;;;;;;2.25;1.45;;;;;;;;;;4836777;29;20632;-64
2022/07/03 04:38:30;;;;;;;3.22;1.60;;;;;;;;;;4836691;29;20128;-64
2022/07/03 04:40:56;;;;;;;1.90;1.40;;;;;;;;;;4837324;29;20045;-64
2022/07/03 04:43:21;;;;;;;2.95;1.50;;;;;;;;;;4820456;29;20050;-64
2022/07/03 04:45:47;;;;;;;6.15;1.58;;;;;;;;;;4839346;29;20044;-64
2022/07/03 04:48:12;;;;;;;2.35;1.63;;;;;;;;;;4822894;29;21232;-65
2022/07/03 04:50:37;;;;;;;1.73;1.23;;;;;;;;;;4839182;29;20444;-65
2022/07/03 04:53:03;;;;;;;2.20;1.30;;;;;;;;;;4835742;29;20052;-64
2022/07/03 04:55:28;;;;;;;2.22;1.50;;;;;;;;;;4841306;29;20045;-64
2022/07/03 04:57:54;;;;;;;1.58;1.38;;;;;;;;;;4838786;29;20029;-65
2022/07/03 05:00:19;;;;;;;3.17;1.70;;;;;;;;;;4836625;29;20038;-64
2022/07/03 05:02:44;;;;;;;3.78;1.70;;;;;;;;;;4832332;29;20070;-64
2022/07/03 05:05:10;;;;;;;4.55;2.28;;;;;;;;;;4834576;29;20233;-64
2022/07/03 05:07:35;;;;;;;2.83;2.03;;;;;;;;;;4832271;29;20046;-64
2022/07/03 05:10:00;;;;;;;4.05;2.80;;;;;;;;;;4833261;29;20117;-63
2022/07/03 05:12:26;;;;;;;4.20;2.05;;;;;;;;;;4837730;29;20041;-65
2022/07/03 05:14:52;;;;;;;3.40;2.78;;;;;;;;;;4835652;29;20046;-64
2022/07/03 05:17:18;;;;;;;4.53;2.92;;;;;;;;;;4836310;29;20387;-64
2022/07/03 05:19:43;;;;;;;3.58;2.58;;;;;;;;;;4834844;29;20042;-66
2022/07/03 05:22:09;;;;;;;3.90;2.60;;;;;;;;;;4833379;29;20121;-66
2022/07/03 05:24:35;;;;;;;3.30;2.60;;;;;;;;;;4834161;29;20045;-64
2022/07/03 05:27:00;;;;;;;3.30;2.70;;;;;;;;;;4834162;29;20368;-66
2022/07/03 05:29:25;;;;;;;3.38;2.55;;;;;;;;;;4835596;29;20045;-64
2022/07/03 05:31:51;;;;;;;2.88;2.30;;;;;;;;;;4836435;29;20057;-65
2022/07/03 05:34:16;;;;;;;2.53;1.98;;;;;;;;;;4834222;29;20109;-65
2022/07/03 05:36:41;;;;;;;4.53;2.00;;;;;;;;;;4831966;29;20045;-64
2022/07/03 05:41:51;;;;;;;4.60;2.25;;;;;;;;;;4834244;29;20157;-64
2022/07/03 05:44:16;;;;;;;2.28;1.65;;;;;;;;;;4833252;29;20574;-64
2022/07/03 05:46:42;;;;;;;4.10;2.00;;;;;;;;;;4835846;29;20056;-65
2022/07/03 05:49:07;;;;;;;4.00;2.30;;;;;;;;;;4831537;29;20030;-65
2022/07/03 05:51:32;;;;;;;7.43;2.00;;;;;;;;;;4833294;29;20376;-64
2022/07/03 05:53:58;;;;;;;4.13;1.73;;;;;;;;;;4833534;29;20157;-65
2022/07/03 05:56:24;;;;;;;4.22;1.58;;;;;;;;;;4833515;29;20057;-65
2022/07/03 05:58:50;;;;;;;3.38;1.48;;;;;;;;;;4832514;29;20515;-66
2022/07/03 06:01:15;;;;;;;1.63;1.52;;;;;;;;;;4838750;29;20045;-65
2022/07/03 06:03:41;;;;;;;1.60;1.50;;;;;;;;;;4838230;29;20061;-65
2022/07/03 06:06:06;;;;;;;3.58;1.85;;;;;;;;;;4836965;29;20114;-65
2022/07/03 06:08:31;;;;;;;3.00;1.70;;;;;;;;;;4837792;29;20131;-65
2022/07/03 06:10:57;;;;;;;4.95;1.80;;;;;;;;;;4839384;29;20481;-63
2022/07/03 06:13:22;;;;;;;3.28;1.92;;;;;;;;;;4836357;29;20113;-65
2022/07/03 06:15:48;;;;;;;2.97;1.88;;;;;;;;;;4836460;29;20117;-64
2022/07/03 06:18:13;;;;;;;3.65;1.60;;;;;;;;;;4839287;29;20053;-65
2022/07/03 06:20:38;;;;;;;3.15;1.75;;;;;;;;;;4835053;29;20114;-65
2022/07/03 06:23:04;;;;;;;2.80;1.65;;;;;;;;;;4835155;29;20034;-62
2022/07/03 06:25:29;;;;;;;2.60;1.98;;;;;;;;;;4838759;29;20038;-66
2022/07/03 06:27:54;;;;;;;4.10;2.25;;;;;;;;;;4834689;29;20439;-63
2022/07/03 06:30:20;;;;;;;3.40;2.00;;;;;;;;;;4821040;29;20119;-63
2022/07/03 06:32:45;;;;;;;2.60;1.90;;;;;;;;;;4837482;29;20052;-63
2022/07/03 06:35:10;;;;;;;2.03;1.83;;;;;;;;;;4840501;29;20056;-64
2022/07/03 06:37:36;;;;;;;5.13;2.30;;;;;;;;;;4842591;29;20101;-63
2022/07/03 06:40:01;;;;;;;3.10;2.30;;;;;;;;;;4838358;29;20018;-64
2022/07/03 06:42:27;;;;;;;5.93;2.22;;;;;;;;;;4839798;29;20411;-63
2022/07/03 06:44:53;;;;;;;2.22;1.73;;;;;;;;;;4839981;29;20062;-61
2022/07/03 06:47:19;;;;;;;3.53;2.13;;;;;;;;;;4842444;29;20467;-64
2022/07/03 06:49:44;;;;;;;4.68;1.92;;;;;;;;;;4838330;29;20113;-64
2022/07/03 06:52:11;;;;;;;4.10;2.17;;;;;;;;;;4838081;29;20030;-62
2022/07/03 06:54:43;;;;;;;7.95;2.70;;;;;;;;;;4839857;29;20030;-64
2022/07/03 06:57:20;;;;;;;4.30;2.47;;;;;;;;;;4837758;29;20034;-64
2022/07/03 06:59:47;;;;;;;6.47;2.90;;;;;;;;;;4838184;29;20111;-64
2022/07/03 07:02:13;;;;;;;11.60;4.93;;;;;;;;;;4838380;29;20511;-65
2022/07/03 07:04:39;;;;;;;9.70;3.78;;;;;;;;;;4806300;29;20103;-64
2022/07/03 07:07:05;;;;;;;5.47;2.38;;;;;;;;;;4826774;29;20033;-61
2022/07/03 07:09:30;;;;;;;8.02;3.38;;;;;;;;;;4839496;29;20021;-63
2022/07/03 07:11:55;;;;;;;7.07;2.30;;;;;;;;;;4835135;29;20042;-62
2022/07/03 07:14:21;;;;;;;3.80;2.17;;;;;;;;;;4836862;29;20034;-64
2022/07/03 07:16:46;;;;;;;5.05;2.35;;;;;;;;;;4836580;29;20406;-63
2022/07/03 07:19:12;;;;;;;4.22;2.13;;;;;;;;;;4833505;29;20096;-62
2022/07/03 07:21:37;;;;;;;3.05;2.20;;;;;;;;;;4839045;29;20061;-63
2022/07/03 07:24:03;;;;;;;4.88;2.03;;;;;;;;;;4837559;29;20066;-64
2022/07/03 07:26:28;;;;;;;4.28;2.50;;;;;;;;;;4837332;29;20436;-62
2022/07/03 07:28:53;;;;;;;5.88;2.17;;;;;;;;;;4836023;29;20041;-65
2022/07/03 07:31:19;;;;;;;3.50;1.90;;;;;;;;;;4832253;29;20091;-63
2022/07/03 07:33:44;;;;;;;3.85;2.05;;;;;;;;;;4836940;29;20483;-64
2022/07/03 07:36:10;;;;;;;2.65;2.00;;;;;;;;;;4838410;29;20038;-62
2022/07/03 07:38:35;;;;;;;2.65;1.90;;;;;;;;;;4837844;29;20046;-63
2022/07/03 07:41:00;;;;;;;2.78;2.10;;;;;;;;;;4839032;29;20122;-63
2022/07/03 07:43:26;;;;;;;4.53;1.90;;;;;;;;;;4835187;29;20066;-63
2022/07/03 07:45:52;;;;;;;2.33;1.33;;;;;;;;;;4838399;29;20432;-63
2022/07/03 07:48:18;;;;;;;3.05;1.70;;;;;;;;;;4839155;29;20054;-63
2022/07/03 07:50:43;;;;;;;2.35;1.30;;;;;;;;;;4832031;29;20459;-63
2022/07/03 07:53:09;;;;;;;3.20;1.17;;;;;;;;;;4833104;29;20639;-64
2022/07/03 07:55:34;;;;;;;3.95;1.40;;;;;;;;;;4836204;29;20045;-63
2022/07/03 07:58:00;;;;;;;2.13;1.30;;;;;;;;;;4833974;29;20069;-64
2022/07/03 08:00:25;;;;;;;4.20;1.35;;;;;;;;;;4835208;29;20029;-64
2022/07/03 08:05:37;;;;;;;1.70;1.10;;;;;;;;;;4835063;29;20478;-64
2022/07/03 08:08:08;;;;;;;1.88;1.00;;;;;;;;;;4832193;29;20094;-64
2022/07/03 08:10:45;;;;;;;1.35;1.23;;;;;;;;;;4835428;29;20057;-63
2022/07/03 08:13:12;;;;;;;2.45;0.93;;;;;;;;;;4834930;29;20081;-64
2022/07/03 08:15:40;;;;;;;0.95;0.90;;;;;;;;;;4834448;29;20081;-63
2022/07/03 08:18:05;;;;;;;2.83;1.63;;;;;;;;;;4835734;29;20518;-63
2022/07/03 08:20:32;;;;;;;1.95;1.20;;;;;;;;;;4838989;29;20240;-63
2022/07/03 08:22:58;;;;;;;1.10;1.00;;;;;;;;;;4835139;29;20041;-64
2022/07/03 08:25:24;;;;;;;1.23;1.10;;;;;;;;;;4834421;29;20041;-66
2022/07/03 08:27:50;;;;;;;1.77;1.08;;;;;;;;;;4836595;29;20036;-64
2022/07/03 08:30:17;;;;;;;1.48;1.13;;;;;;;;;;4833354;29;20046;-63
2022/07/03 08:32:47;;;;;;;2.28;1.33;;;;;;;;;;4837404;29;20051;-64
2022/07/03 08:35:12;;;;;;;2.50;1.33;;;;;;;;;;4837166;29;20045;-64
2022/07/03 08:37:40;;;;;;;3.70;1.10;;;;;;;;;;4837891;29;20348;-63
2022/07/03 08:40:07;;;;;;;1.85;1.00;;;;;;;;;;4837048;29;20440;-64
2022/07/03 08:42:34;;;;;;;2.10;1.00;;;;;;;;;;4837904;29;20041;-64
2022/07/03 08:45:01;;;;;;;0.95;0.90;;;;;;;;;;4833820;29;20038;-63
2022/07/03 08:47:27;;;;;;;1.17;1.00;;;;;;;;;;4837836;29;20046;-63
2022/07/03 08:49:54;;;;;;;1.25;0.90;;;;;;;;;;4837093;29;20829;-64
2022/07/03 08:52:22;;;;;;;2.13;1.00;;;;;;;;;;4835220;29;20038;-65
2022/07/03 08:54:47;;;;;;;3.28;1.00;;;;;;;;;;4840840;29;20040;-64
2022/07/03 08:57:13;;;;;;;3.70;1.42;;;;;;;;;;4838358;29;20414;-66
2022/07/03 08:59:39;;;;;;;4.05;1.00;;;;;;;;;;4837425;29;20049;-63
2022/07/03 09:02:06;;;;;;;1.42;0.80;;;;;;;;;;4836282;29;20459;-63
2022/07/03 09:04:32;;;;;;;1.33;0.85;;;;;;;;;;4831544;29;20106;-62
2022/07/03 09:06:58;;;;;;;0.95;0.82;;;;;;;;;;4835702;29;20041;-64
2022/07/03 09:09:24;;;;;;;2.65;0.90;;;;;;;;;;4834827;29;20369;-62
2022/07/03 09:11:51;;;;;;;1.80;1.00;;;;;;;;;;4835932;29;20041;-62
2022/07/03 09:14:16;;;;;;;1.38;0.68;;;;;;;;;;4832219;29;20511;-63
2022/07/03 09:16:42;;;;;;;1.95;0.75;;;;;;;;;;4820897;29;20034;-62
2022/07/03 09:19:08;;;;;;;0.60;0.60;;;;;;;;;;4831858;29;20495;-63
2022/07/03 09:21:40;;;;;;;0.88;0.50;;;;;;;;;;4835755;29;20031;-63
2022/07/03 09:24:07;;;;;;;1.35;0.80;;;;;;;;;;4831311;29;20034;-65
2022/07/03 09:26:33;;;;;;;2.42;0.80;;;;;;;;;;4819180;29;20407;-63
2022/07/03 09:28:59;;;;;;;1.60;0.73;;;;;;;;;;4835111;29;20465;-65
2022/07/03 09:31:26;;;;;;;2.85;1.10;;;;;;;;;;4834083;29;20038;-64
2022/07/03 09:33:51;;;;;;;1.17;0.80;;;;;;;;;;4835935;29;20356;-65
2022/07/03 09:36:17;;;;;;;3.85;0.63;;;;;;;;;;4839479;29;20041;-64
2022/07/03 09:38:45;;;;;;;1.75;0.68;;;;;;;;;;4836589;29;20065;-62
2022/07/03 09:41:11;;;;;;;0.63;0.60;;;;;;;;;;4831476;29;20119;-62
2022/07/03 09:43:42;;;;;;;1.17;0.77;;;;;;;;;;4836035;29;20152;-61
2022/07/03 09:46:07;;;;;;;1.55;0.57;;;;;;;;;;4832720;29;20074;-63
2022/07/03 09:48:38;;;;;;;1.35;0.63;;;;;;;;;;4832685;29;20033;-62
2022/07/03 09:51:26;;;;;;;1.05;0.60;;;;;;;;;;4831948;29;20061;-63
2022/07/03 09:54:00;;;;;;;1.02;0.60;;;;;;;;;;4832446;29;20073;-63
2022/07/03 09:56:36;;;;;;;2.83;0.65;;;;;;;;;;4835626;29;20414;-63
2022/07/03 09:59:13;;;;;;;4.47;0.80;;;;;;;;;;4838036;29;20133;-63
2022/07/03 10:01:44;;;;;;;5.50;0.65;;;;;;;;;;4839341;29;20050;-63
2022/07/03 10:04:15;;;;;;;3.47;0.77;;;;;;;;;;4835714;29;20174;-63
2022/07/03 10:06:52;;;;;;;3.60;0.80;;;;;;;;;;4837709;29;20033;-64
2022/07/03 10:09:29;;;;;;;0.95;0.60;;;;;;;;;;4836893;29;20072;-63
2022/07/03 10:11:55;;;;;;;0.50;0.50;;;;;;;;;;4835906;29;20049;-63
2022/07/03 10:14:27;;;;;;;2.97;0.63;;;;;;;;;;4837309;29;20049;-63
2022/07/03 10:16:53;;;;;;;4.00;0.60;;;;;;;;;;4836147;29;22125;-64
2022/07/03 10:19:18;;;;;;;2.10;0.47;;;;;;;;;;4838645;29;20212;-64
2022/07/03 10:21:49;;;;;;;1.55;0.80;;;;;;;;;;4838232;29;20117;-66
2022/07/03 10:24:17;;;;;;;0.77;0.50;;;;;;;;;;4838389;29;20074;-62
2022/07/03 10:26:43;;;;;;;3.85;0.60;;;;;;;;;;4839823;29;20098;-63
2022/07/03 10:29:10;;;;;;;0.90;0.68;;;;;;;;;;4837375;29;20046;-62
2022/07/03 10:31:37;;;;;;;0.68;0.60;;;;;;;;;;4820443;29;20084;-64
2022/07/03 10:34:04;;;;;;;3.00;0.50;;;;;;;;;;4836509;29;20033;-62
2022/07/03 10:36:30;;;;;;;1.77;0.88;;;;;;;;;;4838354;29;20493;-63
2022/07/03 10:38:59;;;;;;;5.07;0.95;;;;;;;;;;4839360;29;20048;-67
2022/07/03 10:47:42;;;;;;;0.88;0.60;;;;;;;;;;4837622;29;20050;-64
2022/07/03 10:50:20;;;;;;;1.10;0.50;;;;;;;;;;4839555;29;20050;-63
2022/07/03 10:52:46;;;;;;;5.55;0.85;;;;;;;;;;4837482;29;20076;-63
2022/07/03 10:55:13;;;;;;;2.38;0.75;;;;;;;;;;4841084;29;20042;-62
2022/07/03 10:57:40;;;;;;;0.80;0.80;;;;;;;;;;4840252;29;20125;-63
2022/07/03 11:00:08;;;;;;;3.08;0.60;;;;;;;;;;4839191;29;20087;-63
2022/07/03 11:02:39;;;;;;;0.77;0.70;;;;;;;;;;4833637;29;20541;-62
2022/07/03 11:05:10;;;;;;;1.55;0.70;;;;;;;;;;4836075;29;20034;-63
2022/07/03 11:07:47;;;;;;;0.55;0.55;;;;;;;;;;4835696;29;20129;-63
2022/07/03 11:10:16;;;;;;;1.70;0.70;;;;;;;;;;4830277;29;20049;-65
2022/07/03 11:13:01;;;;;;;1.77;0.60;;;;;;;;;;4841639;29;20105;-66
2022/07/03 11:15:49;;;;;;;2.85;0.73;;;;;;;;;;4833423;29;20114;-58
2022/07/03 11:18:17;;;;;;;3.97;0.80;;;;;;;;;;4838479;29;20964;-59
2022/07/03 11:20:43;;;;;;;3.42;0.70;;;;;;;;;;4843077;29;20033;-59
2022/07/03 11:23:33;;;;;;;0.80;0.50;;;;;;;;;;4835956;29;20042;-59
2022/07/03 11:26:07;;;;;;;1.08;0.60;;;;;;;;;;4840359;29;20069;-60
2022/07/03 11:28:32;;;;;;;1.45;0.60;;;;;;;;;;4836406;29;20522;-59
2022/07/03 11:33:58;;;;;;;1.90;0.60;;;;;;;;;;4841513;29;20132;-58
2022/07/03 11:36:29;;;;;;;2.10;0.60;;;;;;;;;;4844045;29;20459;-59
2022/07/03 11:38:57;;;;;;;1.55;0.60;;;;;;;;;;4838601;29;20050;-59
2022/07/03 11:41:28;;;;;;;2.45;0.47;;;;;;;;;;4818669;29;20714;-63
2022/07/03 11:44:01;;;;;;;2.03;0.50;;;;;;;;;;4842404;29;20117;-60
2022/07/03 11:46:31;;;;;;;2.15;0.50;;;;;;;;;;4840539;29;20045;-60
2022/07/03 11:49:10;;;;;;;0.75;0.60;;;;;;;;;;4838346;29;20074;-60
2022/07/03 11:51:39;;;;;;;1.75;0.70;;;;;;;;;;4842834;29;20042;-63
2022/07/03 11:54:05;;;;;;;3.78;0.60;;;;;;;;;;4838299;29;20050;-61
2022/07/03 11:56:32;;;;;;;1.05;0.70;;;;;;;;;;4837341;29;20038;-59
2022/07/03 11:59:00;;;;;;;1.60;0.57;;;;;;;;;;4836744;29;20041;-59
2022/07/03 12:01:25;;;;;;;4.13;0.60;;;;;;;;;;4839280;29;20069;-60
2022/07/03 12:03:54;;;;;;;1.88;0.55;;;;;;;;;;4837523;29;20041;-58
2022/07/03 12:06:20;;;;;;;3.67;0.70;;;;;;;;;;4834173;29;20045;-58
2022/07/03 12:08:46;;;;;;;0.90;0.50;;;;;;;;;;4838931;29;20514;-60
2022/07/03 12:11:14;;;;;;;2.08;0.60;;;;;;;;;;4839479;29;20042;-61
2022/07/03 12:13:39;;;;;;;0.40;0.40;;;;;;;;;;4833851;29;20069;-60
2022/07/03 12:16:06;;;;;;;1.38;0.50;;;;;;;;;;4837230;29;20060;-59
2022/07/03 12:18:51;;;;;;;0.75;0.50;;;;;;;;;;4834973;29;20459;-59
2022/07/03 12:21:18;;;;;;;0.43;0.43;;;;;;;;;;4837302;29;20045;-61
2022/07/03 12:23:49;;;;;;;1.13;0.50;;;;;;;;;;4838015;29;20545;-61
2022/07/03 12:26:34;;;;;;;3.35;0.52;;;;;;;;;;4820627;29;20437;-60
2022/07/03 12:29:12;;;;;;;1.67;0.45;;;;;;;;;;4835021;29;20041;-60
2022/07/03 12:31:46;;;;;;;0.60;0.43;;;;;;;;;;4837186;29;20042;-60
2022/07/03 12:34:14;;;;;;;2.05;0.60;;;;;;;;;;4839711;29;20406;-60
2022/07/03 12:36:40;;;;;;;3.85;0.68;;;;;;;;;;4840187;29;20037;-64
2022/07/03 12:39:06;;;;;;;1.40;0.45;;;;;;;;;;4819281;29;20042;-61
2022/07/03 12:41:32;;;;;;;2.33;0.68;;;;;;;;;;4837800;29;20041;-60
2022/07/03 12:43:59;;;;;;;2.78;0.50;;;;;;;;;;4827505;29;20577;-61
2022/07/03 12:46:32;;;;;;;1.23;0.47;;;;;;;;;;4839865;29;20049;-59
2022/07/03 12:49:08;;;;;;;0.85;0.70;;;;;;;;;;4838828;29;20104;-60
2022/07/03 12:52:00;;;;;;;1.65;0.70;;;;;;;;;;4839534;29;20066;-58
2022/07/03 12:54:34;;;;;;;3.13;0.75;;;;;;;;;;4839047;29;21821;-60
2022/07/03 12:59:16;;;;;;;0.60;0.60;;;;;;;;;;4839301;29;20037;-59
2022/07/03 13:00:10;;;;;;;1.58;0.60;;;;;;;;;;4834510;29;20046;-58
2022/07/03 13:02:38;;;;;;;1.73;0.50;;;;;;;;;;4832116;29;20041;-58
2022/07/03 13:05:26;;;;;;;2.50;0.75;;;;;;;;;;4832003;29;20050;-59
2022/07/03 13:07:54;;;;;;;1.63;0.52;;;;;;;;;;4828841;29;20088;-61
2022/07/03 13:10:22;;;;;;;1.00;0.47;;;;;;;;;;4834541;29;20079;-61
2022/07/03 13:12:51;;;;;;;1.27;0.60;;;;;;;;;;4838653;29;20030;-60
2022/07/03 13:15:19;;;;;;;1.42;0.60;;;;;;;;;;4835122;29;20041;-61
2022/07/03 13:17:53;;;;;;;3.55;0.60;;;;;;;;;;4842084;29;20057;-61
2022/07/03 13:20:30;;;;;;;2.33;0.60;;;;;;;;;;4838263;29;20129;-65
2022/07/03 13:22:57;;;;;;;2.55;0.70;;;;;;;;;;4839885;29;20041;-60
2022/07/03 13:25:23;;;;;;;1.88;0.65;;;;;;;;;;4841859;29;20569;-61
2022/07/03 13:27:49;;;;;;;4.40;0.70;;;;;;;;;;4837515;29;20034;-59
2022/07/03 13:30:16;;;;;;;1.38;0.68;;;;;;;;;;4835814;29;20038;-59
2022/07/03 13:32:42;;;;;;;1.40;0.70;;;;;;;;;;4836422;29;20046;-58
2022/07/03 13:35:08;;;;;;;5.57;0.70;;;;;;;;;;4839157;29;20461;-61
2022/07/03 13:37:34;;;;;;;1.50;0.80;;;;;;;;;;4838333;29;20046;-59
2022/07/03 13:40:04;;;;;;;1.75;0.55;;;;;;;;;;4845644;29;20049;-60
2022/07/03 13:42:30;;;;;;;1.73;0.80;;;;;;;;;;4833091;29;20053;-60
2022/07/03 13:44:55;;;;;;;2.45;0.57;;;;;;;;;;4834363;29;20507;-61
2022/07/03 13:47:21;;;;;;;3.42;0.70;;;;;;;;;;4832579;29;20089;-61
2022/07/03 13:49:46;;;;;;;0.82;0.60;;;;;;;;;;4839373;29;20687;-61
2022/07/03 13:52:12;;;;;;;1.42;0.60;;;;;;;;;;4840581;29;20033;-61
2022/07/03 13:54:37;;;;;;;0.75;0.60;;;;;;;;;;4836248;29;20095;-60
2022/07/03 13:57:03;;;;;;;3.15;0.50;;;;;;;;;;4840189;29;20451;-60
2022/07/03 13:59:31;;;;;;;1.17;0.80;;;;;;;;;;4837116;29;20045;-59
2022/07/03 14:01:57;;;;;;;0.57;0.45;;;;;;;;;;4834496;29;20038;-60
2022/07/03 14:04:23;;;;;;;1.88;0.70;;;;;;;;;;4832658;29;20105;-63
2022/07/03 14:06:48;;;;;;;0.90;0.70;;;;;;;;;;4838255;29;20441;-61
2022/07/03 14:09:15;;;;;;;1.52;0.65;;;;;;;;;;4831002;29;20045;-69
2022/07/03 14:11:40;;;;;;;1.33;0.70;;;;;;;;;;4837126;29;20475;-59
2022/07/03 14:14:06;;;;;;;1.30;0.70;;;;;;;;;;4837331;29;20565;-60
2022/07/03 14:16:32;;;;;;;2.35;0.70;;;;;;;;;;4836719;29;20564;-60
2022/07/03 14:18:57;;;;;;;0.70;0.60;;;;;;;;;;4839142;29;20104;-60
2022/07/03 14:21:23;;;;;;;3.60;0.70;;;;;;;;;;4839552;29;20045;-62
2022/07/03 14:23:48;;;;;;;3.75;0.70;;;;;;;;;;4833404;29;20038;-61
2022/07/03 14:26:13;;;;;;;2.45;0.55;;;;;;;;;;4838172;29;20065;-59
2022/07/03 14:33:54;;;;;;;1.25;0.73;;;;;;;;;;4838269;29;20029;-60
2022/07/03 14:36:20;;;;;;;0.77;0.77;;;;;;;;;;4841378;29;21588;-59
2022/07/03 14:38:45;;;;;;;1.35;0.60;;;;;;;;;;4847440;29;20042;-61
2022/07/03 14:41:11;;;;;;;0.75;0.73;;;;;;;;;;4846309;29;20433;-60
2022/07/03 14:43:36;;;;;;;1.10;0.80;;;;;;;;;;4841304;29;20467;-59
2022/07/03 14:46:02;;;;;;;3.30;0.80;;;;;;;;;;4843403;29;20098;-60
2022/07/03 14:48:27;;;;;;;3.15;0.75;;;;;;;;;;4837005;29;20042;-59
2022/07/03 14:50:54;;;;;;;2.17;0.93;;;;;;;;;;4843897;23;21277;-62
2022/07/03 14:53:20;;;;;;;1.13;1.02;;;;;;;;;;4840994;29;20488;-63
2022/07/03 14:55:46;;;;;;;0.82;0.70;;;;;;;;;;4841900;29;20109;-63
2022/07/03 14:58:26;;;;;;;0.70;0.70;;;;;;;;;;4841653;29;20125;-62
2022/07/03 15:00:54;;;;;;;1.70;0.70;;;;;;;;;;4839588;29;20124;-63
2022/07/03 15:03:32;;;;;;;2.20;1.08;;;;;;;;;;4837829;29;21593;-62
2022/07/03 15:06:18;;;;;;;1.35;0.85;;;;;;;;;;4835995;29;20551;-63
2022/07/03 15:09:01;;;;;;;1.55;0.75;;;;;;;;;;4836984;29;20069;-62
2022/07/03 15:14:20;;;;;;;1.33;0.95;;;;;;;;;;4833011;29;20111;-62
2022/07/03 15:16:47;;;;;;;1.83;1.00;;;;;;;;;;4817094;29;20050;-64
2022/07/03 15:19:16;;;;;;;3.97;1.73;;;;;;;;;;4837404;29;20042;-70